Startpagina
METAR-TAF:

METAR-TAF

Vliegvelden :

Cannes, Frankrijk

breedte: 43-33N, lengte: 006-57E, hoogte: 3 m

Actueel weer

Dit bericht is 40 minuten geleden gemaakt, om 13:30 UTC
Wind 8 kt uit het oostzuidoosten, variërend tussen het oosten en het zuiden
Temperatuur 28°C
Vochtigheid 62%
Druk 1014 hPa
Zicht 10 km of meer
geen wolken onder 1500 m en geen cumulonimbus

METAR: LFMD 211330Z AUTO 12008KT 090V170 CAVOK 28/20 Q1014 BECMG 24015KT

Tijdstip: 16:10 (14:10 UTC)

Verwachting

Dit bericht is 10 minuten geleden gemaakt, om 14:00 UTC
Verwachting geldig van 20 om 15 UTC tot 21 om 15 UTC
Wind 6 kt uit het zuidzuidoosten
Zicht 10 km of meer
geen wolken onder 1500 m en geen cumulonimbus
Wijzigt naar
van 20 om 15 UTC tot 20 om 17 UTC
Wind 4 kt uit variabele richting
Tijdelijke
van 20 om 21 UTC tot 21 om 06 UTC
Wind 6 kt uit het noorden
Wijzigt naar
van 21 om 08 UTC tot 21 om 10 UTC
Wind 12 kt uit het zuidzuidoosten

TAF: LFMD 201400Z 2015/2115 16006KT CAVOK BECMG 2015/2017 VRB04KT TEMPO 2021/2106 36006KT BECMG 2108/2110 16012KT

Waarnemingen en weersverwachtingen van meer dan 4000 vliegvelden (METAR en TAF).

De beschikbare stations zijn de gele en rode punten op de kaart.

Ga met uw muis naar het station om de naam te zien.

Klik dan om waarnemingen en weersverwachtingen te zien.

kaart wijzigen: klik op de groene knoppen met een zwart kruis om in te zoomen, op de groene knop met een streepje om uit te zoomen of op de groene pijlen voor aangrenzende kaarten.


METAR-TAF: